createdAt,value
2022-08-21T00:01:46.445Z,2.50
2022-08-21T00:04:22.306Z,2.70
2022-08-21T00:06:51.028Z,2.55
2022-08-21T00:09:19.598Z,2.80
2022-08-21T00:11:48.650Z,2.60
2022-08-21T00:14:17.388Z,2.60
2022-08-21T00:16:45.594Z,2.25
2022-08-21T00:19:14.927Z,2.30
2022-08-21T00:21:44.347Z,2.67
2022-08-21T00:24:12.777Z,2.45
2022-08-21T00:26:40.684Z,2.60
2022-08-21T00:29:08.715Z,2.40
2022-08-21T00:31:36.651Z,2.47
2022-08-21T00:34:05.163Z,2.33
2022-08-21T00:36:34.846Z,2.40
2022-08-21T00:39:03.476Z,2.42
2022-08-21T00:41:37.223Z,2.08
2022-08-21T00:44:07.359Z,2.13
2022-08-21T00:46:35.710Z,1.90
2022-08-21T00:49:04.388Z,1.98
2022-08-21T00:51:39.603Z,1.90
2022-08-21T00:54:11.637Z,2.00
2022-08-21T00:56:49.431Z,2.40
2022-08-21T00:59:18.515Z,1.75
2022-08-21T01:01:46.933Z,1.95
2022-08-21T01:04:16.656Z,2.03
2022-08-21T01:06:46.300Z,1.80
2022-08-21T01:09:15.210Z,1.73
2022-08-21T01:11:44.319Z,1.55
2022-08-21T01:14:13.094Z,1.70
2022-08-21T01:16:41.903Z,1.70
2022-08-21T01:19:10.883Z,1.60
2022-08-21T01:21:41.912Z,1.77
2022-08-21T01:24:13.027Z,1.90
2022-08-21T01:26:42.356Z,1.90
2022-08-21T01:29:16.284Z,1.65
2022-08-21T01:31:44.579Z,2.00
2022-08-21T01:34:13.093Z,1.80
2022-08-21T01:36:42.466Z,1.70
2022-08-21T01:39:11.066Z,1.92
2022-08-21T01:41:39.026Z,1.60
2022-08-21T01:44:07.097Z,2.00
2022-08-21T01:46:35.016Z,1.60
2022-08-21T01:49:03.120Z,1.70
2022-08-21T01:51:31.017Z,2.05
2022-08-21T01:54:00.574Z,1.70
2022-08-21T01:56:28.800Z,1.73
2022-08-21T01:58:57.373Z,2.00
2022-08-21T02:01:25.455Z,1.77
2022-08-21T02:03:53.375Z,1.70
2022-08-21T02:06:21.389Z,2.17
2022-08-21T02:08:51.433Z,1.85
2022-08-21T02:11:21.344Z,1.60
2022-08-21T02:13:49.337Z,1.50
2022-08-21T02:16:19.492Z,1.70
2022-08-21T02:18:48.062Z,1.70
2022-08-21T02:21:16.166Z,1.60
2022-08-21T02:23:44.149Z,1.67
2022-08-21T02:26:12.933Z,1.60
2022-08-21T02:28:43.220Z,1.60
2022-08-21T02:31:11.777Z,1.60
2022-08-21T02:33:40.331Z,1.73
2022-08-21T02:36:09.622Z,1.73
2022-08-21T02:38:39.698Z,1.88
2022-08-21T02:41:09.532Z,2.00
2022-08-21T02:43:37.645Z,1.80
2022-08-21T02:46:08.561Z,1.70
2022-08-21T02:48:37.782Z,2.05
2022-08-21T02:51:08.680Z,1.92
2022-08-21T02:53:37.100Z,1.90
2022-08-21T02:56:08.238Z,1.63
2022-08-21T02:58:39.499Z,2.10
2022-08-21T03:01:10.558Z,1.70
2022-08-21T03:03:40.173Z,1.85
2022-08-21T03:06:10.086Z,1.90
2022-08-21T03:08:39.110Z,1.70
2022-08-21T03:11:07.868Z,1.73
2022-08-21T03:13:38.558Z,1.80
2022-08-21T03:16:09.790Z,2.00
2022-08-21T03:18:40.102Z,1.70
2022-08-21T03:21:08.334Z,1.63
2022-08-21T03:23:36.675Z,1.98
2022-08-21T03:26:05.938Z,1.80
2022-08-21T03:28:35.907Z,1.90
2022-08-21T03:31:03.808Z,2.00
2022-08-21T03:33:31.728Z,2.10
2022-08-21T03:36:03.811Z,1.90
2022-08-21T03:38:34.283Z,2.03
2022-08-21T03:41:03.706Z,1.88
2022-08-21T03:43:32.531Z,2.40
2022-08-21T03:46:01.902Z,2.08
2022-08-21T03:48:29.974Z,2.05
2022-08-21T03:50:57.974Z,1.85
2022-08-21T03:53:27.700Z,2.13
2022-08-21T03:55:55.994Z,1.67
2022-08-21T03:58:26.420Z,1.95
2022-08-21T04:00:58.492Z,2.00
2022-08-21T04:03:27.561Z,1.80
2022-08-21T04:05:55.514Z,2.28
2022-08-21T04:08:23.646Z,1.73
2022-08-21T04:10:56.353Z,1.70
2022-08-21T04:13:24.781Z,2.10
2022-08-21T04:15:53.024Z,1.80
2022-08-21T04:18:20.969Z,1.75
2022-08-21T04:20:51.858Z,1.92
2022-08-21T04:23:24.385Z,1.83
2022-08-21T04:25:55.372Z,1.95
2022-08-21T04:28:23.655Z,1.50
2022-08-21T04:30:57.793Z,1.92
2022-08-21T04:33:26.265Z,1.65
2022-08-21T04:35:54.303Z,1.90
2022-08-21T04:38:22.297Z,1.88
2022-08-21T04:40:50.871Z,1.90
2022-08-21T04:43:22.377Z,1.90
2022-08-21T04:45:52.303Z,1.65
2022-08-21T04:48:25.044Z,1.88
2022-08-21T04:50:57.259Z,1.50
2022-08-21T04:53:32.165Z,2.03
2022-08-21T04:56:06.355Z,1.70
2022-08-21T04:58:36.812Z,1.67
2022-08-21T05:01:08.911Z,1.80
2022-08-21T05:03:39.482Z,1.92
2022-08-21T05:06:11.327Z,2.03
2022-08-21T05:08:39.814Z,1.67
2022-08-21T05:11:08.687Z,1.70
2022-08-21T05:13:38.240Z,1.52
2022-08-21T05:16:06.516Z,1.50
2022-08-21T05:18:34.374Z,1.50
2022-08-21T05:21:02.368Z,1.30
2022-08-21T05:23:30.331Z,1.33
2022-08-21T05:25:58.341Z,1.45
2022-08-21T05:28:26.896Z,1.30
2022-08-21T05:30:56.454Z,1.48
2022-08-21T05:33:24.429Z,1.48
2022-08-21T05:35:53.593Z,1.45
2022-08-21T05:38:21.732Z,1.48
2022-08-21T05:40:49.707Z,1.33
2022-08-21T05:43:17.915Z,1.05
2022-08-21T05:45:45.920Z,1.50
2022-08-21T05:48:17.886Z,1.17
2022-08-21T05:50:47.151Z,1.40
2022-08-21T05:53:16.458Z,1.48
2022-08-21T05:55:46.440Z,1.30
2022-08-21T05:58:15.601Z,1.50
2022-08-21T06:00:43.945Z,1.10
2022-08-21T06:03:20.229Z,1.00
2022-08-21T06:05:48.979Z,1.38
2022-08-21T06:08:17.296Z,1.00
2022-08-21T06:10:45.510Z,1.15
2022-08-21T06:13:13.751Z,1.30
2022-08-21T06:15:42.057Z,1.27
2022-08-21T06:18:10.574Z,1.30
2022-08-21T06:20:40.579Z,1.08
2022-08-21T06:23:08.908Z,1.13
2022-08-21T06:25:37.284Z,1.30
2022-08-21T06:28:06.706Z,1.40
2022-08-21T06:30:35.178Z,1.13
2022-08-21T06:33:03.891Z,1.20
2022-08-21T06:35:32.225Z,1.27
2022-08-21T06:38:01.500Z,1.42
2022-08-21T06:40:30.728Z,1.13
2022-08-21T06:43:08.121Z,1.30
2022-08-21T06:48:04.265Z,1.25
2022-08-21T06:50:32.370Z,1.58
2022-08-21T06:53:03.362Z,1.52
2022-08-21T06:55:31.644Z,1.50
2022-08-21T06:57:59.583Z,1.23
2022-08-21T07:00:28.073Z,1.48
2022-08-21T07:02:55.973Z,1.30
2022-08-21T07:05:24.250Z,1.50
2022-08-21T07:07:52.185Z,1.38
2022-08-21T07:10:22.275Z,1.75
2022-08-21T07:12:52.563Z,1.75
2022-08-21T07:15:28.881Z,2.42
2022-08-21T07:17:58.975Z,2.05
2022-08-21T07:20:27.331Z,1.60
2022-08-21T07:22:55.811Z,2.00
2022-08-21T07:25:25.248Z,2.05
2022-08-21T07:27:53.368Z,1.90
2022-08-21T07:30:21.368Z,2.20
2022-08-21T07:32:50.788Z,2.20
2022-08-21T07:35:19.883Z,2.05
2022-08-21T07:37:48.299Z,2.05
2022-08-21T07:40:18.012Z,1.80
2022-08-21T07:42:50.999Z,1.75
2022-08-21T07:45:20.230Z,1.95
2022-08-21T07:47:48.221Z,2.65
2022-08-21T07:50:17.697Z,2.58
2022-08-21T07:52:46.338Z,2.08
2022-08-21T07:55:16.717Z,2.30
2022-08-21T07:57:45.729Z,2.60
2022-08-21T08:00:18.453Z,2.20
2022-08-21T08:02:50.305Z,2.40
2022-08-21T08:05:21.158Z,2.38
2022-08-21T08:07:49.366Z,2.72
2022-08-21T08:10:18.768Z,2.45
2022-08-21T08:12:47.654Z,2.20
2022-08-21T08:15:19.381Z,2.50
2022-08-21T08:17:47.774Z,2.65
2022-08-21T08:20:18.081Z,2.58
2022-08-21T08:22:50.041Z,2.53
2022-08-21T08:25:20.817Z,2.70
2022-08-21T08:27:48.923Z,2.60
2022-08-21T08:30:20.772Z,2.65
2022-08-21T08:32:49.029Z,2.38
2022-08-21T08:35:17.723Z,2.80
2022-08-21T08:37:47.908Z,2.65
2022-08-21T08:40:24.699Z,2.97
2022-08-21T08:42:52.812Z,3.00
2022-08-21T08:45:24.887Z,3.17
2022-08-21T08:47:59.080Z,2.90
2022-08-21T08:50:35.097Z,2.83
2022-08-21T08:53:07.146Z,3.50
2022-08-21T08:55:37.217Z,2.55
2022-08-21T08:58:05.696Z,2.92
2022-08-21T09:00:35.712Z,3.25
2022-08-21T09:03:05.202Z,2.60
2022-08-21T09:05:42.338Z,2.63
2022-08-21T09:08:27.404Z,2.55
2022-08-21T09:11:02.598Z,2.70
2022-08-21T09:13:45.371Z,2.97
2022-08-21T09:19:00.409Z,3.38
2022-08-21T09:21:39.997Z,2.70
2022-08-21T09:24:23.502Z,3.83
2022-08-21T09:26:58.776Z,3.20
2022-08-21T09:29:32.010Z,3.05
2022-08-21T09:32:01.329Z,3.28
2022-08-21T09:34:32.182Z,3.00
2022-08-21T09:37:00.822Z,3.15
2022-08-21T09:39:30.785Z,3.78
2022-08-21T09:42:00.015Z,3.20
2022-08-21T09:44:30.132Z,3.17
2022-08-21T09:46:58.393Z,3.20
2022-08-21T09:49:32.670Z,3.17
2022-08-21T09:52:01.675Z,3.10
2022-08-21T09:54:33.403Z,2.42
2022-08-21T09:57:23.978Z,2.57
2022-08-21T09:59:52.138Z,2.80
2022-08-21T10:02:29.069Z,3.33
2022-08-21T10:05:01.774Z,2.83
2022-08-21T10:07:32.186Z,3.00
2022-08-21T10:10:02.318Z,3.20
2022-08-21T10:12:38.706Z,3.50
2022-08-21T10:15:15.608Z,2.67
2022-08-21T10:17:51.852Z,2.38
2022-08-21T10:20:27.241Z,3.08
2022-08-21T10:23:09.461Z,2.58
2022-08-21T10:25:50.514Z,2.50
2022-08-21T10:28:32.874Z,2.50
2022-08-21T10:31:09.904Z,1.95
2022-08-21T10:33:46.606Z,2.70
2022-08-21T10:36:21.245Z,2.47
2022-08-21T10:39:25.994Z,2.55
2022-08-21T10:42:08.075Z,2.53
2022-08-21T10:44:43.902Z,2.45
2022-08-21T10:47:20.870Z,3.40
2022-08-21T10:49:56.817Z,2.85
2022-08-21T10:52:44.184Z,3.38
2022-08-21T10:55:16.116Z,2.90
2022-08-21T10:57:49.645Z,2.35
2022-08-21T11:00:20.698Z,2.17
2022-08-21T11:02:54.667Z,2.30
2022-08-21T11:05:28.748Z,2.78
2022-08-21T11:08:04.366Z,2.72
2022-08-21T11:10:40.848Z,2.58
2022-08-21T11:13:33.873Z,2.60
2022-08-21T11:16:07.497Z,2.88
2022-08-21T11:18:39.586Z,2.97
2022-08-21T11:21:32.863Z,2.97
2022-08-21T11:24:08.787Z,2.55
2022-08-21T11:26:40.915Z,2.33
2022-08-21T11:29:15.531Z,3.00
2022-08-21T11:31:57.811Z,2.30
2022-08-21T11:34:38.491Z,2.17
2022-08-21T11:37:12.937Z,2.08
2022-08-21T11:39:51.201Z,2.03
2022-08-21T11:42:27.241Z,2.22
2022-08-21T11:45:03.842Z,3.00
2022-08-21T11:47:42.016Z,3.25
2022-08-21T11:50:25.636Z,2.13
2022-08-21T11:55:43.283Z,1.90
2022-08-21T11:58:17.496Z,2.28
2022-08-21T12:00:49.766Z,2.47
2022-08-21T12:03:24.687Z,2.05
2022-08-21T12:05:56.564Z,2.40
2022-08-21T12:08:33.987Z,2.55
2022-08-21T12:11:07.141Z,2.40
2022-08-21T12:13:42.383Z,2.70
2022-08-21T12:16:13.183Z,2.20
2022-08-21T12:18:43.090Z,2.33
2022-08-21T12:21:23.898Z,2.35
2022-08-21T12:24:03.785Z,2.00
2022-08-21T12:26:35.819Z,2.28
2022-08-21T12:29:12.590Z,2.45
2022-08-21T12:31:54.956Z,2.38
2022-08-21T12:34:26.608Z,2.40
2022-08-21T12:36:58.723Z,2.28
2022-08-21T12:39:29.083Z,2.20
2022-08-21T12:42:02.605Z,2.42
2022-08-21T12:44:36.625Z,2.10
2022-08-21T12:47:07.737Z,2.40
2022-08-21T12:49:38.952Z,2.30
2022-08-21T12:52:16.071Z,2.45
2022-08-21T12:54:45.837Z,2.40
2022-08-21T12:57:23.701Z,1.98
2022-08-21T12:59:56.734Z,2.17
2022-08-21T13:04:56.255Z,2.35
2022-08-21T13:07:28.728Z,2.08
2022-08-21T13:10:00.038Z,2.40
2022-08-21T13:12:32.468Z,2.33
2022-08-21T13:15:03.211Z,2.80
2022-08-21T13:17:37.262Z,2.38
2022-08-21T13:20:10.061Z,2.60
2022-08-21T13:22:44.737Z,2.67
2022-08-21T13:25:14.554Z,2.53
2022-08-21T13:27:44.785Z,2.50
2022-08-21T13:30:15.509Z,2.50
2022-08-21T13:32:46.230Z,2.88
2022-08-21T13:35:18.264Z,2.53
2022-08-21T13:37:48.250Z,2.50
2022-08-21T13:40:19.630Z,2.58
2022-08-21T13:42:50.317Z,2.58
2022-08-21T13:45:24.212Z,2.45
2022-08-21T13:47:53.379Z,2.10
2022-08-21T13:50:24.010Z,2.20
2022-08-21T13:52:59.813Z,2.58
2022-08-21T13:55:37.066Z,2.38
2022-08-21T13:58:08.038Z,2.70
2022-08-21T14:00:39.954Z,2.67
2022-08-21T14:03:11.244Z,2.97
2022-08-21T14:05:48.382Z,2.65
2022-08-21T14:08:30.440Z,2.42
2022-08-21T14:10:59.045Z,2.60
2022-08-21T14:13:40.227Z,2.47
2022-08-21T14:16:15.713Z,2.90
2022-08-21T14:18:53.623Z,2.70
2022-08-21T14:21:33.383Z,2.88
2022-08-21T14:24:05.106Z,2.42
2022-08-21T14:26:34.637Z,2.50
2022-08-21T14:29:10.461Z,2.20
2022-08-21T14:31:41.864Z,2.35
2022-08-21T14:34:19.491Z,2.25
2022-08-21T14:36:49.126Z,2.42
2022-08-21T14:39:17.247Z,2.42
2022-08-21T14:41:46.942Z,2.50
2022-08-21T14:44:17.009Z,2.40
2022-08-21T14:46:55.813Z,2.40
2022-08-21T14:49:29.273Z,2.50
2022-08-21T14:51:59.130Z,2.30
2022-08-21T14:54:31.748Z,2.25
2022-08-21T14:57:02.440Z,2.67
2022-08-21T14:59:33.594Z,2.35
2022-08-21T15:02:02.065Z,2.38
2022-08-21T15:04:29.976Z,2.20
2022-08-21T15:06:58.063Z,2.40
2022-08-21T15:09:25.968Z,2.50
2022-08-21T15:11:55.088Z,2.42
2022-08-21T15:14:24.948Z,2.38
2022-08-21T15:16:54.745Z,2.50
2022-08-21T15:19:22.860Z,2.67
2022-08-21T15:21:51.154Z,2.60
2022-08-21T15:24:19.130Z,2.50
2022-08-21T15:26:47.881Z,2.28
2022-08-21T15:29:22.670Z,2.50
2022-08-21T15:31:58.482Z,2.35
2022-08-21T15:34:28.149Z,2.60
2022-08-21T15:36:57.117Z,2.45
2022-08-21T15:39:30.036Z,2.53
2022-08-21T15:41:58.209Z,3.03
2022-08-21T15:44:27.800Z,2.50
2022-08-21T15:46:57.779Z,2.40
2022-08-21T15:49:25.686Z,2.78
2022-08-21T15:51:53.685Z,2.70
2022-08-21T15:54:21.558Z,3.10
2022-08-21T15:56:51.503Z,3.00
2022-08-21T15:59:22.845Z,2.70
2022-08-21T16:01:51.919Z,2.83
2022-08-21T16:04:25.687Z,2.83
2022-08-21T16:06:59.211Z,2.78
2022-08-21T16:09:30.000Z,2.72
2022-08-21T16:11:58.092Z,2.92
2022-08-21T16:14:26.087Z,3.22
2022-08-21T16:16:54.794Z,3.15
2022-08-21T16:19:24.454Z,2.80
2022-08-21T16:21:52.352Z,2.90
2022-08-21T16:24:20.387Z,3.17
2022-08-21T16:26:57.563Z,3.00
2022-08-21T16:29:30.897Z,2.92
2022-08-21T16:31:59.042Z,2.63
2022-08-21T16:34:29.530Z,2.65
2022-08-21T16:36:57.509Z,2.75
2022-08-21T16:39:26.708Z,2.90
2022-08-21T16:41:55.360Z,2.97
2022-08-21T16:44:23.917Z,2.35
2022-08-21T16:46:51.894Z,2.55
2022-08-21T16:49:20.878Z,2.90
2022-08-21T16:51:50.132Z,2.85
2022-08-21T16:54:18.739Z,2.75
2022-08-21T16:56:48.055Z,2.72
2022-08-21T16:59:17.628Z,2.42
2022-08-21T17:01:46.525Z,2.78
2022-08-21T17:04:14.537Z,2.80
2022-08-21T17:06:43.938Z,2.75
2022-08-21T17:09:13.238Z,2.95
2022-08-21T17:11:44.980Z,2.90
2022-08-21T17:14:16.150Z,2.70
2022-08-21T17:16:47.920Z,2.70
2022-08-21T17:19:16.112Z,3.08
2022-08-21T17:21:44.144Z,2.85
2022-08-21T17:24:15.542Z,3.00
2022-08-21T17:26:44.073Z,3.17
2022-08-21T17:29:14.408Z,2.95
2022-08-21T17:31:44.900Z,2.95
2022-08-21T17:34:13.753Z,2.88
2022-08-21T17:36:41.683Z,3.13
2022-08-21T17:39:10.860Z,3.00
2022-08-21T17:41:41.425Z,2.95
2022-08-21T17:44:16.535Z,2.70
2022-08-21T17:46:46.356Z,2.97
2022-08-21T17:49:15.913Z,3.25
2022-08-21T17:51:43.947Z,3.20
2022-08-21T17:54:11.911Z,2.88
2022-08-21T17:56:43.427Z,3.08
2022-08-21T17:59:12.094Z,2.83
2022-08-21T18:01:43.542Z,3.17
2022-08-21T18:04:12.272Z,2.78
2022-08-21T18:06:40.665Z,3.03
2022-08-21T18:09:09.523Z,3.00
2022-08-21T18:11:38.622Z,3.30
2022-08-21T18:14:08.290Z,3.33
2022-08-21T18:16:38.137Z,3.00
2022-08-21T18:19:09.466Z,2.92
2022-08-21T18:21:37.647Z,3.00
2022-08-21T18:24:06.194Z,3.00
2022-08-21T18:26:37.412Z,3.30
2022-08-21T18:29:10.950Z,3.25
2022-08-21T18:31:40.333Z,3.10
2022-08-21T18:34:19.593Z,3.38
2022-08-21T18:36:48.325Z,3.15
2022-08-21T18:39:35.364Z,3.22
2022-08-21T18:42:06.584Z,3.17
2022-08-21T18:44:35.950Z,3.47
2022-08-21T18:47:07.420Z,3.63
2022-08-21T18:49:35.405Z,3.17
2022-08-21T18:52:04.028Z,3.45
2022-08-21T18:54:32.026Z,4.00
2022-08-21T18:57:00.193Z,4.07
2022-08-21T18:59:35.639Z,3.60
2022-08-21T19:02:07.943Z,4.57
2022-08-21T19:04:44.297Z,3.85
2022-08-21T19:07:25.353Z,3.70
2022-08-21T19:12:44.311Z,3.63
2022-08-21T19:15:16.433Z,3.83
2022-08-21T19:17:47.063Z,4.18
2022-08-21T19:20:25.595Z,3.30
2022-08-21T19:22:55.336Z,3.90
2022-08-21T19:28:17.081Z,4.43
2022-08-21T19:30:56.168Z,4.07
2022-08-21T19:33:29.415Z,4.63
2022-08-21T19:35:57.769Z,4.63
2022-08-21T19:38:26.340Z,4.15
2022-08-21T19:40:55.607Z,4.28
2022-08-21T19:43:24.193Z,4.28
2022-08-21T19:45:56.901Z,4.20
2022-08-21T19:48:26.217Z,4.55
2022-08-21T19:50:54.264Z,3.92
2022-08-21T19:53:22.242Z,4.40
2022-08-21T19:55:50.920Z,4.30
2022-08-21T19:58:29.274Z,4.38
2022-08-21T20:00:58.516Z,4.50
2022-08-21T20:03:26.404Z,4.35
2022-08-21T20:05:54.393Z,4.18
2022-08-21T20:08:22.435Z,4.30
2022-08-21T20:10:58.100Z,4.82
2022-08-21T20:13:26.669Z,4.70
2022-08-21T20:15:55.345Z,5.03
2022-08-21T20:18:26.929Z,4.45
2022-08-21T20:20:55.673Z,5.03
2022-08-21T20:23:30.369Z,5.20
2022-08-21T20:26:01.663Z,5.07
2022-08-21T20:28:30.409Z,4.60
2022-08-21T20:30:58.566Z,4.90
2022-08-21T20:33:27.854Z,4.80
2022-08-21T20:35:55.809Z,5.13
2022-08-21T20:38:24.366Z,4.53
2022-08-21T20:40:54.583Z,4.50
2022-08-21T20:43:23.346Z,5.35
2022-08-21T20:45:51.899Z,4.78
2022-08-21T20:48:26.748Z,5.25
2022-08-21T20:51:01.655Z,4.95
2022-08-21T20:53:43.805Z,4.68
2022-08-21T20:56:18.025Z,4.88
2022-08-21T20:58:53.173Z,5.70
2022-08-21T21:01:22.395Z,5.28
2022-08-21T21:03:56.860Z,5.45
2022-08-21T21:06:29.205Z,5.30
2022-08-21T21:09:02.282Z,4.95
2022-08-21T21:11:34.873Z,5.03
2022-08-21T21:14:11.558Z,5.05
2022-08-21T21:16:45.971Z,5.50
2022-08-21T21:19:25.825Z,4.80
2022-08-21T21:22:01.229Z,5.40
2022-08-21T21:24:37.802Z,5.00
2022-08-21T21:27:12.340Z,5.20
2022-08-21T21:29:45.003Z,5.30
2022-08-21T21:32:18.211Z,5.30
2022-08-21T21:34:51.051Z,5.40
2022-08-21T21:37:25.834Z,5.00
2022-08-21T21:40:05.279Z,5.10
2022-08-21T21:42:44.329Z,5.07
2022-08-21T21:45:24.355Z,5.30
2022-08-21T21:48:06.961Z,4.72
2022-08-21T21:50:53.272Z,5.40
2022-08-21T21:53:37.969Z,4.80
2022-08-21T21:56:21.085Z,5.50
2022-08-21T21:59:08.269Z,5.38
2022-08-21T22:01:42.108Z,5.53
2022-08-21T22:04:16.921Z,5.15
2022-08-21T22:06:53.133Z,5.32
2022-08-21T22:09:37.008Z,5.10
2022-08-21T22:12:15.607Z,5.40
2022-08-21T22:14:44.337Z,5.00
2022-08-21T22:17:30.920Z,4.65
2022-08-21T22:20:00.770Z,5.50
2022-08-21T22:22:30.547Z,5.18
2022-08-21T22:25:06.978Z,4.97
2022-08-21T22:27:37.981Z,4.85
2022-08-21T22:30:09.381Z,5.25
2022-08-21T22:32:42.813Z,5.07
2022-08-21T22:35:20.603Z,5.20
2022-08-21T22:37:52.815Z,5.38
2022-08-21T22:40:26.247Z,4.87
2022-08-21T22:43:02.618Z,4.60
2022-08-21T22:45:32.364Z,5.05
2022-08-21T22:48:14.560Z,4.95
2022-08-21T22:50:57.420Z,5.00
2022-08-21T22:53:29.493Z,5.55
2022-08-21T22:56:00.622Z,4.72
2022-08-21T22:58:31.960Z,4.80
2022-08-21T23:01:05.093Z,5.28
2022-08-21T23:03:35.665Z,4.88
2022-08-21T23:06:21.677Z,5.05
2022-08-21T23:08:50.253Z,4.68
2022-08-21T23:11:23.482Z,5.07
2022-08-21T23:13:54.221Z,4.75
2022-08-21T23:16:33.800Z,5.05
2022-08-21T23:19:09.230Z,4.72
2022-08-21T23:21:46.942Z,4.90
2022-08-21T23:24:32.069Z,5.10
2022-08-21T23:27:12.477Z,4.65
2022-08-21T23:29:51.642Z,4.90
2022-08-21T23:32:52.517Z,4.97
2022-08-21T23:35:44.971Z,4.82
2022-08-21T23:38:20.998Z,4.70
2022-08-21T23:40:54.472Z,5.50
2022-08-21T23:43:41.598Z,4.93
2022-08-21T23:46:29.808Z,4.70
2022-08-21T23:49:11.067Z,4.80
2022-08-21T23:51:51.446Z,4.75
2022-08-21T23:54:24.023Z,4.63
2022-08-21T23:57:08.219Z,4.70
2022-08-21T23:59:44.488Z,4.20
